sensor_id;sensor_type;location;lat;lon;timestamp;P1;durP1;ratioP1;P2;durP2;ratioP2
56363;SDS011;42261;52.094;4.326;2022-09-02T00:00:21;2.00;;;1.23;;
56363;SDS011;42261;52.094;4.326;2022-09-02T00:03:05;3.55;;;1.15;;
56363;SDS011;42261;52.094;4.326;2022-09-02T00:05:49;1.50;;;0.52;;
56363;SDS011;42261;52.094;4.326;2022-09-02T00:08:34;3.17;;;0.70;;
56363;SDS011;42261;52.094;4.326;2022-09-02T00:11:20;0.90;;;0.55;;
56363;SDS011;42261;52.094;4.326;2022-09-02T00:14:08;1.70;;;0.40;;
56363;SDS011;42261;52.094;4.326;2022-09-02T00:16:54;2.73;;;0.70;;
56363;SDS011;42261;52.094;4.326;2022-09-02T00:19:39;2.78;;;0.55;;
56363;SDS011;42261;52.094;4.326;2022-09-02T00:22:23;0.88;;;0.47;;
56363;SDS011;42261;52.094;4.326;2022-09-02T00:25:08;1.23;;;0.50;;
56363;SDS011;42261;52.094;4.326;2022-09-02T00:27:52;5.15;;;0.60;;
56363;SDS011;42261;52.094;4.326;2022-09-02T00:30:36;0.45;;;0.40;;
56363;SDS011;42261;52.094;4.326;2022-09-02T00:33:21;0.93;;;0.50;;
56363;SDS011;42261;52.094;4.326;2022-09-02T00:36:05;2.15;;;0.50;;
56363;SDS011;42261;52.094;4.326;2022-09-02T00:38:50;0.85;;;0.32;;
56363;SDS011;42261;52.094;4.326;2022-09-02T00:41:36;1.10;;;0.60;;
56363;SDS011;42261;52.094;4.326;2022-09-02T00:44:22;1.45;;;0.45;;
56363;SDS011;42261;52.094;4.326;2022-09-02T00:47:06;0.63;;;0.40;;
56363;SDS011;42261;52.094;4.326;2022-09-02T00:49:53;2.15;;;0.63;;
56363;SDS011;42261;52.094;4.326;2022-09-02T00:52:43;0.38;;;0.38;;
56363;SDS011;42261;52.094;4.326;2022-09-02T00:55:33;0.47;;;0.40;;
56363;SDS011;42261;52.094;4.326;2022-09-02T00:58:21;0.70;;;0.47;;
56363;SDS011;42261;52.094;4.326;2022-09-02T01:01:09;1.05;;;0.47;;
56363;SDS011;42261;52.094;4.326;2022-09-02T01:03:54;1.45;;;0.50;;
56363;SDS011;42261;52.094;4.326;2022-09-02T01:06:39;0.50;;;0.40;;
56363;SDS011;42261;52.094;4.326;2022-09-02T01:09:23;3.38;;;0.50;;
56363;SDS011;42261;52.094;4.326;2022-09-02T01:12:08;1.13;;;0.40;;
56363;SDS011;42261;52.094;4.326;2022-09-02T01:14:52;0.52;;;0.40;;
56363;SDS011;42261;52.094;4.326;2022-09-02T01:17:38;4.00;;;0.52;;
56363;SDS011;42261;52.094;4.326;2022-09-02T01:20:26;2.00;;;0.50;;
56363;SDS011;42261;52.094;4.326;2022-09-02T01:23:10;1.00;;;0.50;;
56363;SDS011;42261;52.094;4.326;2022-09-02T01:25:57;0.85;;;0.50;;
56363;SDS011;42261;52.094;4.326;2022-09-02T01:28:41;2.30;;;0.63;;
56363;SDS011;42261;52.094;4.326;2022-09-02T01:31:25;0.60;;;0.40;;
56363;SDS011;42261;52.094;4.326;2022-09-02T01:34:10;0.95;;;0.47;;
56363;SDS011;42261;52.094;4.326;2022-09-02T01:36:54;1.40;;;0.60;;
56363;SDS011;42261;52.094;4.326;2022-09-02T01:39:38;0.55;;;0.43;;
56363;SDS011;42261;52.094;4.326;2022-09-02T01:42:23;2.42;;;0.60;;
56363;SDS011;42261;52.094;4.326;2022-09-02T01:45:07;1.35;;;0.55;;
56363;SDS011;42261;52.094;4.326;2022-09-02T01:47:52;1.15;;;0.57;;
56363;SDS011;42261;52.094;4.326;2022-09-02T01:50:37;0.95;;;0.60;;
56363;SDS011;42261;52.094;4.326;2022-09-02T01:53:24;1.50;;;0.50;;
56363;SDS011;42261;52.094;4.326;2022-09-02T01:56:10;1.10;;;0.40;;
56363;SDS011;42261;52.094;4.326;2022-09-02T01:58:54;1.48;;;0.60;;
56363;SDS011;42261;52.094;4.326;2022-09-02T02:01:39;0.75;;;0.55;;
56363;SDS011;42261;52.094;4.326;2022-09-02T02:04:24;1.27;;;0.40;;
56363;SDS011;42261;52.094;4.326;2022-09-02T02:07:08;1.58;;;0.55;;
56363;SDS011;42261;52.094;4.326;2022-09-02T02:09:53;0.73;;;0.60;;
56363;SDS011;42261;52.094;4.326;2022-09-02T02:12:38;3.00;;;0.70;;
56363;SDS011;42261;52.094;4.326;2022-09-02T02:15:22;0.85;;;0.40;;
56363;SDS011;42261;52.094;4.326;2022-09-02T02:18:07;0.47;;;0.40;;
56363;SDS011;42261;52.094;4.326;2022-09-02T02:20:52;0.88;;;0.47;;
56363;SDS011;42261;52.094;4.326;2022-09-02T02:23:36;1.02;;;0.50;;
56363;SDS011;42261;52.094;4.326;2022-09-02T02:26:20;1.10;;;0.47;;
56363;SDS011;42261;52.094;4.326;2022-09-02T02:29:05;0.73;;;0.50;;
56363;SDS011;42261;52.094;4.326;2022-09-02T02:31:50;0.82;;;0.50;;
56363;SDS011;42261;52.094;4.326;2022-09-02T02:34:35;1.38;;;0.52;;
56363;SDS011;42261;52.094;4.326;2022-09-02T02:37:19;3.38;;;0.60;;
56363;SDS011;42261;52.094;4.326;2022-09-02T02:40:05;1.08;;;0.40;;
56363;SDS011;42261;52.094;4.326;2022-09-02T02:42:50;1.75;;;0.60;;
56363;SDS011;42261;52.094;4.326;2022-09-02T02:45:38;0.65;;;0.40;;
56363;SDS011;42261;52.094;4.326;2022-09-02T02:48:23;1.02;;;0.57;;
56363;SDS011;42261;52.094;4.326;2022-09-02T02:51:07;1.67;;;0.55;;
56363;SDS011;42261;52.094;4.326;2022-09-02T02:53:52;2.75;;;0.65;;
56363;SDS011;42261;52.094;4.326;2022-09-02T02:56:36;1.48;;;0.50;;
56363;SDS011;42261;52.094;4.326;2022-09-02T02:59:20;0.80;;;0.40;;
56363;SDS011;42261;52.094;4.326;2022-09-02T03:02:05;2.33;;;0.45;;
56363;SDS011;42261;52.094;4.326;2022-09-02T03:04:49;2.85;;;0.50;;
56363;SDS011;42261;52.094;4.326;2022-09-02T03:07:36;5.85;;;0.73;;
56363;SDS011;42261;52.094;4.326;2022-09-02T03:10:22;1.85;;;0.63;;
56363;SDS011;42261;52.094;4.326;2022-09-02T03:13:08;0.80;;;0.50;;
56363;SDS011;42261;52.094;4.326;2022-09-02T03:15:53;1.92;;;0.50;;
56363;SDS011;42261;52.094;4.326;2022-09-02T03:18:37;0.57;;;0.38;;
56363;SDS011;42261;52.094;4.326;2022-09-02T03:21:21;1.35;;;0.50;;
56363;SDS011;42261;52.094;4.326;2022-09-02T03:24:06;1.63;;;0.40;;
56363;SDS011;42261;52.094;4.326;2022-09-02T03:26:51;1.08;;;0.60;;
56363;SDS011;42261;52.094;4.326;2022-09-02T03:29:35;1.05;;;0.60;;
56363;SDS011;42261;52.094;4.326;2022-09-02T03:32:19;1.38;;;0.50;;
56363;SDS011;42261;52.094;4.326;2022-09-02T03:35:05;2.00;;;0.43;;
56363;SDS011;42261;52.094;4.326;2022-09-02T03:37:51;2.10;;;0.50;;
56363;SDS011;42261;52.094;4.326;2022-09-02T03:40:36;0.80;;;0.40;;
56363;SDS011;42261;52.094;4.326;2022-09-02T03:43:21;1.00;;;0.50;;
56363;SDS011;42261;52.094;4.326;2022-09-02T03:46:06;1.13;;;0.50;;
56363;SDS011;42261;52.094;4.326;2022-09-02T03:48:52;2.72;;;0.70;;
56363;SDS011;42261;52.094;4.326;2022-09-02T03:51:40;3.58;;;0.40;;
56363;SDS011;42261;52.094;4.326;2022-09-02T03:54:25;0.50;;;0.50;;
56363;SDS011;42261;52.094;4.326;2022-09-02T03:57:10;2.15;;;0.70;;
56363;SDS011;42261;52.094;4.326;2022-09-02T03:59:54;1.55;;;0.50;;
56363;SDS011;42261;52.094;4.326;2022-09-02T04:02:38;1.50;;;0.60;;
56363;SDS011;42261;52.094;4.326;2022-09-02T04:05:23;2.75;;;0.60;;
56363;SDS011;42261;52.094;4.326;2022-09-02T04:08:08;1.73;;;0.55;;
56363;SDS011;42261;52.094;4.326;2022-09-02T04:10:52;1.35;;;0.60;;
56363;SDS011;42261;52.094;4.326;2022-09-02T04:13:38;0.70;;;0.55;;
56363;SDS011;42261;52.094;4.326;2022-09-02T04:16:23;1.33;;;0.80;;
56363;SDS011;42261;52.094;4.326;2022-09-02T04:19:14;0.60;;;0.60;;
56363;SDS011;42261;52.094;4.326;2022-09-02T04:21:58;0.93;;;0.60;;
56363;SDS011;42261;52.094;4.326;2022-09-02T04:24:42;1.13;;;0.60;;
56363;SDS011;42261;52.094;4.326;2022-09-02T04:27:26;1.75;;;0.60;;
56363;SDS011;42261;52.094;4.326;2022-09-02T04:30:11;1.80;;;0.60;;
56363;SDS011;42261;52.094;4.326;2022-09-02T04:32:59;1.70;;;0.77;;
56363;SDS011;42261;52.094;4.326;2022-09-02T04:35:44;3.60;;;0.70;;
56363;SDS011;42261;52.094;4.326;2022-09-02T04:38:29;1.65;;;0.50;;
56363;SDS011;42261;52.094;4.326;2022-09-02T04:41:15;3.10;;;0.60;;
56363;SDS011;42261;52.094;4.326;2022-09-02T04:44:02;1.75;;;0.75;;
56363;SDS011;42261;52.094;4.326;2022-09-02T04:46:48;2.63;;;0.60;;
56363;SDS011;42261;52.094;4.326;2022-09-02T04:49:32;0.70;;;0.47;;
56363;SDS011;42261;52.094;4.326;2022-09-02T04:52:17;1.48;;;0.60;;
56363;SDS011;42261;52.094;4.326;2022-09-02T04:55:02;1.58;;;0.60;;
56363;SDS011;42261;52.094;4.326;2022-09-02T04:57:46;1.52;;;0.63;;
56363;SDS011;42261;52.094;4.326;2022-09-02T05:00:32;1.70;;;0.63;;
56363;SDS011;42261;52.094;4.326;2022-09-02T05:03:18;1.33;;;0.55;;
56363;SDS011;42261;52.094;4.326;2022-09-02T05:06:04;1.85;;;0.57;;
56363;SDS011;42261;52.094;4.326;2022-09-02T05:08:49;2.95;;;0.75;;
56363;SDS011;42261;52.094;4.326;2022-09-02T05:11:34;1.88;;;0.68;;
56363;SDS011;42261;52.094;4.326;2022-09-02T05:14:19;0.93;;;0.60;;
56363;SDS011;42261;52.094;4.326;2022-09-02T05:17:04;2.08;;;0.77;;
56363;SDS011;42261;52.094;4.326;2022-09-02T05:19:48;1.67;;;0.63;;
56363;SDS011;42261;52.094;4.326;2022-09-02T05:22:33;2.63;;;0.60;;
56363;SDS011;42261;52.094;4.326;2022-09-02T05:25:18;2.05;;;0.50;;
56363;SDS011;42261;52.094;4.326;2022-09-02T05:28:02;1.50;;;0.60;;
56363;SDS011;42261;52.094;4.326;2022-09-02T05:30:47;1.20;;;0.70;;
56363;SDS011;42261;52.094;4.326;2022-09-02T05:33:32;1.92;;;0.60;;
56363;SDS011;42261;52.094;4.326;2022-09-02T05:36:20;1.00;;;0.50;;
56363;SDS011;42261;52.094;4.326;2022-09-02T05:39:06;2.58;;;0.60;;
56363;SDS011;42261;52.094;4.326;2022-09-02T05:41:50;0.98;;;0.52;;
56363;SDS011;42261;52.094;4.326;2022-09-02T05:44:35;1.30;;;0.70;;
56363;SDS011;42261;52.094;4.326;2022-09-02T05:47:20;2.17;;;0.60;;
56363;SDS011;42261;52.094;4.326;2022-09-02T05:50:04;1.10;;;0.63;;
56363;SDS011;42261;52.094;4.326;2022-09-02T05:52:49;1.58;;;0.70;;
56363;SDS011;42261;52.094;4.326;2022-09-02T05:55:34;1.17;;;0.80;;
56363;SDS011;42261;52.094;4.326;2022-09-02T05:58:18;1.67;;;0.63;;
56363;SDS011;42261;52.094;4.326;2022-09-02T06:01:06;4.82;;;0.90;;
56363;SDS011;42261;52.094;4.326;2022-09-02T06:03:52;3.00;;;0.60;;
56363;SDS011;42261;52.094;4.326;2022-09-02T06:06:36;2.10;;;0.85;;
56363;SDS011;42261;52.094;4.326;2022-09-02T06:09:22;2.35;;;0.80;;
56363;SDS011;42261;52.094;4.326;2022-09-02T06:12:07;1.25;;;0.80;;
56363;SDS011;42261;52.094;4.326;2022-09-02T06:14:51;1.70;;;0.68;;
56363;SDS011;42261;52.094;4.326;2022-09-02T06:17:35;1.73;;;0.57;;
56363;SDS011;42261;52.094;4.326;2022-09-02T06:20:20;2.33;;;0.80;;
56363;SDS011;42261;52.094;4.326;2022-09-02T06:23:04;3.28;;;0.70;;
56363;SDS011;42261;52.094;4.326;2022-09-02T06:25:49;2.92;;;0.82;;
56363;SDS011;42261;52.094;4.326;2022-09-02T06:28:33;1.88;;;0.82;;
56363;SDS011;42261;52.094;4.326;2022-09-02T06:31:19;2.40;;;0.75;;
56363;SDS011;42261;52.094;4.326;2022-09-02T06:34:04;1.27;;;0.82;;
56363;SDS011;42261;52.094;4.326;2022-09-02T06:36:49;2.40;;;0.85;;
56363;SDS011;42261;52.094;4.326;2022-09-02T06:39:34;3.15;;;1.05;;
56363;SDS011;42261;52.094;4.326;2022-09-02T06:42:20;2.03;;;0.60;;
56363;SDS011;42261;52.094;4.326;2022-09-02T06:45:05;1.20;;;0.80;;
56363;SDS011;42261;52.094;4.326;2022-09-02T06:47:50;3.67;;;0.90;;
56363;SDS011;42261;52.094;4.326;2022-09-02T06:50:40;2.58;;;0.80;;
56363;SDS011;42261;52.094;4.326;2022-09-02T06:53:25;3.10;;;1.00;;
56363;SDS011;42261;52.094;4.326;2022-09-02T06:56:11;2.08;;;0.95;;
56363;SDS011;42261;52.094;4.326;2022-09-02T06:58:55;2.28;;;1.00;;
56363;SDS011;42261;52.094;4.326;2022-09-02T07:01:40;1.80;;;0.90;;
56363;SDS011;42261;52.094;4.326;2022-09-02T07:04:26;5.05;;;1.55;;
56363;SDS011;42261;52.094;4.326;2022-09-02T07:07:28;4.43;;;0.90;;
56363;SDS011;42261;52.094;4.326;2022-09-02T07:10:13;4.60;;;1.02;;
56363;SDS011;42261;52.094;4.326;2022-09-02T07:12:58;2.10;;;0.80;;
56363;SDS011;42261;52.094;4.326;2022-09-02T07:15:42;2.70;;;0.80;;
56363;SDS011;42261;52.094;4.326;2022-09-02T07:18:28;13.90;;;1.45;;
56363;SDS011;42261;52.094;4.326;2022-09-02T07:21:12;8.32;;;1.30;;
56363;SDS011;42261;52.094;4.326;2022-09-02T07:23:57;8.98;;;1.63;;
56363;SDS011;42261;52.094;4.326;2022-09-02T07:26:43;6.03;;;1.25;;
56363;SDS011;42261;52.094;4.326;2022-09-02T07:29:27;11.18;;;1.52;;
56363;SDS011;42261;52.094;4.326;2022-09-02T07:32:11;1.50;;;0.93;;
56363;SDS011;42261;52.094;4.326;2022-09-02T07:34:56;5.43;;;1.10;;
56363;SDS011;42261;52.094;4.326;2022-09-02T07:37:40;2.72;;;1.10;;
56363;SDS011;42261;52.094;4.326;2022-09-02T07:40:25;6.07;;;1.20;;
56363;SDS011;42261;52.094;4.326;2022-09-02T07:43:09;7.82;;;1.33;;
56363;SDS011;42261;52.094;4.326;2022-09-02T07:45:54;4.28;;;1.52;;
56363;SDS011;42261;52.094;4.326;2022-09-02T07:48:40;10.70;;;1.63;;
56363;SDS011;42261;52.094;4.326;2022-09-02T07:51:25;7.82;;;1.50;;
56363;SDS011;42261;52.094;4.326;2022-09-02T07:54:10;4.47;;;1.10;;
56363;SDS011;42261;52.094;4.326;2022-09-02T07:56:54;25.30;;;2.25;;
56363;SDS011;42261;52.094;4.326;2022-09-02T07:59:38;3.95;;;1.20;;
56363;SDS011;42261;52.094;4.326;2022-09-02T08:02:22;4.68;;;1.30;;
56363;SDS011;42261;52.094;4.326;2022-09-02T08:05:08;13.65;;;2.17;;
56363;SDS011;42261;52.094;4.326;2022-09-02T08:07:52;8.00;;;1.70;;
56363;SDS011;42261;52.094;4.326;2022-09-02T08:10:36;6.03;;;1.40;;
56363;SDS011;42261;52.094;4.326;2022-09-02T08:13:22;4.78;;;1.48;;
56363;SDS011;42261;52.094;4.326;2022-09-02T08:16:08;4.68;;;1.38;;
56363;SDS011;42261;52.094;4.326;2022-09-02T08:18:53;3.88;;;1.40;;
56363;SDS011;42261;52.094;4.326;2022-09-02T08:21:37;5.53;;;1.35;;
56363;SDS011;42261;52.094;4.326;2022-09-02T08:24:21;11.23;;;2.03;;
56363;SDS011;42261;52.094;4.326;2022-09-02T08:27:06;7.80;;;1.70;;
56363;SDS011;42261;52.094;4.326;2022-09-02T08:29:50;3.20;;;1.40;;
56363;SDS011;42261;52.094;4.326;2022-09-02T08:32:34;4.32;;;1.27;;
56363;SDS011;42261;52.094;4.326;2022-09-02T08:35:19;9.35;;;1.52;;
56363;SDS011;42261;52.094;4.326;2022-09-02T08:38:03;11.95;;;2.13;;
56363;SDS011;42261;52.094;4.326;2022-09-02T08:40:47;22.42;;;3.00;;
56363;SDS011;42261;52.094;4.326;2022-09-02T08:43:33;20.38;;;3.08;;
56363;SDS011;42261;52.094;4.326;2022-09-02T08:46:23;5.63;;;1.30;;
56363;SDS011;42261;52.094;4.326;2022-09-02T08:49:10;6.90;;;1.50;;
56363;SDS011;42261;52.094;4.326;2022-09-02T08:52:00;6.00;;;1.77;;
56363;SDS011;42261;52.094;4.326;2022-09-02T08:54:52;2.53;;;1.38;;
56363;SDS011;42261;52.094;4.326;2022-09-02T08:57:38;4.07;;;1.58;;
56363;SDS011;42261;52.094;4.326;2022-09-02T09:00:22;5.35;;;1.60;;
56363;SDS011;42261;52.094;4.326;2022-09-02T09:12:11;3.40;;;1.50;;
56363;SDS011;42261;52.094;4.326;2022-09-02T09:15:26;6.28;;;1.80;;
56363;SDS011;42261;52.094;4.326;2022-09-02T09:18:39;5.13;;;1.40;;
56363;SDS011;42261;52.094;4.326;2022-09-02T09:21:26;5.75;;;1.48;;
56363;SDS011;42261;52.094;4.326;2022-09-02T09:24:20;5.68;;;1.85;;
56363;SDS011;42261;52.094;4.326;2022-09-02T09:27:13;5.57;;;1.83;;
56363;SDS011;42261;52.094;4.326;2022-09-02T09:29:59;2.92;;;1.90;;
56363;SDS011;42261;52.094;4.326;2022-09-02T09:32:46;3.25;;;1.45;;
56363;SDS011;42261;52.094;4.326;2022-09-02T09:35:49;5.13;;;1.80;;
56363;SDS011;42261;52.094;4.326;2022-09-02T09:38:37;2.50;;;1.73;;
56363;SDS011;42261;52.094;4.326;2022-09-02T09:41:22;4.03;;;1.90;;
56363;SDS011;42261;52.094;4.326;2022-09-02T09:44:07;4.55;;;2.00;;
56363;SDS011;42261;52.094;4.326;2022-09-02T09:46:59;3.45;;;1.77;;
56363;SDS011;42261;52.094;4.326;2022-09-02T09:49:48;5.63;;;2.05;;
56363;SDS011;42261;52.094;4.326;2022-09-02T09:52:34;2.33;;;1.70;;
56363;SDS011;42261;52.094;4.326;2022-09-02T09:55:20;5.20;;;2.20;;
56363;SDS011;42261;52.094;4.326;2022-09-02T09:58:09;6.63;;;1.63;;
56363;SDS011;42261;52.094;4.326;2022-09-02T10:00:55;8.40;;;1.65;;
56363;SDS011;42261;52.094;4.326;2022-09-02T10:06:45;6.50;;;1.80;;
56363;SDS011;42261;52.094;4.326;2022-09-02T10:09:33;6.32;;;1.73;;
56363;SDS011;42261;52.094;4.326;2022-09-02T10:12:29;5.15;;;1.90;;
56363;SDS011;42261;52.094;4.326;2022-09-02T10:18:29;5.97;;;1.95;;
56363;SDS011;42261;52.094;4.326;2022-09-02T10:24:36;7.78;;;1.95;;
56363;SDS011;42261;52.094;4.326;2022-09-02T10:30:47;5.03;;;1.90;;
56363;SDS011;42261;52.094;4.326;2022-09-02T10:43:04;4.07;;;2.03;;
56363;SDS011;42261;52.094;4.326;2022-09-02T10:45:51;5.70;;;1.90;;
56363;SDS011;42261;52.094;4.326;2022-09-02T10:48:42;6.80;;;2.00;;
56363;SDS011;42261;52.094;4.326;2022-09-02T10:51:36;5.00;;;2.00;;
56363;SDS011;42261;52.094;4.326;2022-09-02T10:54:34;6.25;;;2.17;;
56363;SDS011;42261;52.094;4.326;2022-09-02T11:00:31;7.88;;;2.33;;
56363;SDS011;42261;52.094;4.326;2022-09-02T11:09:08;4.90;;;2.73;;
56363;SDS011;42261;52.094;4.326;2022-09-02T11:12:39;63.05;;;10.15;;
56363;SDS011;42261;52.094;4.326;2022-09-02T11:18:21;28.27;;;4.68;;
56363;SDS011;42261;52.094;4.326;2022-09-02T11:21:24;14.80;;;5.40;;
56363;SDS011;42261;52.094;4.326;2022-09-02T11:30:36;4.95;;;2.20;;
56363;SDS011;42261;52.094;4.326;2022-09-02T11:36:36;3.63;;;2.15;;
56363;SDS011;42261;52.094;4.326;2022-09-02T11:42:30;10.25;;;3.05;;
56363;SDS011;42261;52.094;4.326;2022-09-02T11:48:56;9.75;;;2.90;;
56363;SDS011;42261;52.094;4.326;2022-09-02T11:52:05;4.22;;;2.33;;
56363;SDS011;42261;52.094;4.326;2022-09-02T11:55:14;4.93;;;1.75;;
56363;SDS011;42261;52.094;4.326;2022-09-02T11:58:03;6.20;;;2.30;;
56363;SDS011;42261;52.094;4.326;2022-09-02T12:03:45;3.13;;;1.88;;
56363;SDS011;42261;52.094;4.326;2022-09-02T12:06:33;3.20;;;1.73;;
56363;SDS011;42261;52.094;4.326;2022-09-02T12:09:40;2.47;;;1.55;;
56363;SDS011;42261;52.094;4.326;2022-09-02T12:15:19;3.95;;;1.98;;
56363;SDS011;42261;52.094;4.326;2022-09-02T12:32:08;4.22;;;1.90;;
56363;SDS011;42261;52.094;4.326;2022-09-02T12:34:53;6.63;;;1.58;;
56363;SDS011;42261;52.094;4.326;2022-09-02T12:37:51;4.20;;;2.17;;
56363;SDS011;42261;52.094;4.326;2022-09-02T12:41:20;4.13;;;1.45;;
56363;SDS011;42261;52.094;4.326;2022-09-02T12:50:31;3.60;;;1.65;;
56363;SDS011;42261;52.094;4.326;2022-09-02T12:58:56;2.67;;;1.23;;
56363;SDS011;42261;52.094;4.326;2022-09-02T13:01:46;2.03;;;1.45;;
56363;SDS011;42261;52.094;4.326;2022-09-02T13:04:56;2.83;;;1.20;;
56363;SDS011;42261;52.094;4.326;2022-09-02T13:08:00;1.50;;;1.10;;
56363;SDS011;42261;52.094;4.326;2022-09-02T13:10:55;2.28;;;1.30;;
56363;SDS011;42261;52.094;4.326;2022-09-02T13:23:28;3.20;;;1.45;;
56363;SDS011;42261;52.094;4.326;2022-09-02T13:32:34;2.42;;;1.05;;
56363;SDS011;42261;52.094;4.326;2022-09-02T13:35:22;2.58;;;1.40;;
56363;SDS011;42261;52.094;4.326;2022-09-02T13:38:12;3.00;;;1.45;;
56363;SDS011;42261;52.094;4.326;2022-09-02T13:43:41;3.65;;;1.50;;
56363;SDS011;42261;52.094;4.326;2022-09-02T13:46:25;3.38;;;1.45;;
56363;SDS011;42261;52.094;4.326;2022-09-02T13:49:16;2.33;;;1.25;;
56363;SDS011;42261;52.094;4.326;2022-09-02T13:52:03;5.18;;;1.40;;
56363;SDS011;42261;52.094;4.326;2022-09-02T13:54:51;2.42;;;1.20;;
56363;SDS011;42261;52.094;4.326;2022-09-02T13:57:36;4.55;;;1.58;;
56363;SDS011;42261;52.094;4.326;2022-09-02T14:00:26;2.25;;;1.40;;
56363;SDS011;42261;52.094;4.326;2022-09-02T14:03:19;3.88;;;1.75;;
56363;SDS011;42261;52.094;4.326;2022-09-02T14:06:04;3.92;;;1.33;;
56363;SDS011;42261;52.094;4.326;2022-09-02T14:08:51;2.70;;;1.50;;
56363;SDS011;42261;52.094;4.326;2022-09-02T14:11:42;2.83;;;1.50;;
56363;SDS011;42261;52.094;4.326;2022-09-02T14:14:28;4.05;;;1.40;;
56363;SDS011;42261;52.094;4.326;2022-09-02T14:17:16;2.88;;;1.50;;
56363;SDS011;42261;52.094;4.326;2022-09-02T14:23:01;3.95;;;1.52;;
56363;SDS011;42261;52.094;4.326;2022-09-02T14:25:52;2.65;;;1.33;;
56363;SDS011;42261;52.094;4.326;2022-09-02T14:28:39;2.95;;;2.13;;
56363;SDS011;42261;52.094;4.326;2022-09-02T14:31:25;3.05;;;1.40;;
56363;SDS011;42261;52.094;4.326;2022-09-02T14:34:32;1.63;;;1.00;;
56363;SDS011;42261;52.094;4.326;2022-09-02T14:37:28;6.25;;;1.65;;
56363;SDS011;42261;52.094;4.326;2022-09-02T14:40:14;2.40;;;1.33;;
56363;SDS011;42261;52.094;4.326;2022-09-02T14:43:00;1.52;;;1.20;;
56363;SDS011;42261;52.094;4.326;2022-09-02T14:45:46;3.55;;;1.38;;
56363;SDS011;42261;52.094;4.326;2022-09-02T14:48:38;2.90;;;1.30;;
56363;SDS011;42261;52.094;4.326;2022-09-02T14:51:24;4.43;;;1.40;;
56363;SDS011;42261;52.094;4.326;2022-09-02T14:54:40;1.92;;;1.30;;
56363;SDS011;42261;52.094;4.326;2022-09-02T14:57:31;3.72;;;1.70;;
56363;SDS011;42261;52.094;4.326;2022-09-02T15:00:18;3.08;;;1.20;;
56363;SDS011;42261;52.094;4.326;2022-09-02T15:03:04;3.42;;;1.25;;
56363;SDS011;42261;52.094;4.326;2022-09-02T15:05:50;1.73;;;1.20;;
56363;SDS011;42261;52.094;4.326;2022-09-02T15:08:35;2.92;;;1.40;;
56363;SDS011;42261;52.094;4.326;2022-09-02T15:11:19;2.53;;;1.30;;
56363;SDS011;42261;52.094;4.326;2022-09-02T15:14:04;1.88;;;1.50;;
56363;SDS011;42261;52.094;4.326;2022-09-02T15:16:48;4.55;;;1.20;;
56363;SDS011;42261;52.094;4.326;2022-09-02T15:19:33;3.13;;;1.42;;
56363;SDS011;42261;52.094;4.326;2022-09-02T15:22:17;2.58;;;1.63;;
56363;SDS011;42261;52.094;4.326;2022-09-02T15:25:02;2.92;;;1.33;;
56363;SDS011;42261;52.094;4.326;2022-09-02T15:30:35;2.20;;;1.40;;
56363;SDS011;42261;52.094;4.326;2022-09-02T15:33:20;3.00;;;1.20;;
56363;SDS011;42261;52.094;4.326;2022-09-02T15:36:05;1.48;;;1.20;;
56363;SDS011;42261;52.094;4.326;2022-09-02T15:38:53;2.03;;;1.30;;
56363;SDS011;42261;52.094;4.326;2022-09-02T15:41:38;3.33;;;1.30;;
56363;SDS011;42261;52.094;4.326;2022-09-02T15:44:23;3.42;;;1.40;;
56363;SDS011;42261;52.094;4.326;2022-09-02T15:47:12;2.90;;;1.30;;
56363;SDS011;42261;52.094;4.326;2022-09-02T15:49:56;2.80;;;1.27;;
56363;SDS011;42261;52.094;4.326;2022-09-02T15:52:40;6.35;;;1.35;;
56363;SDS011;42261;52.094;4.326;2022-09-02T15:55:25;1.77;;;1.48;;
56363;SDS011;42261;52.094;4.326;2022-09-02T15:58:09;2.30;;;1.30;;
56363;SDS011;42261;52.094;4.326;2022-09-02T16:00:54;1.83;;;1.30;;
56363;SDS011;42261;52.094;4.326;2022-09-02T16:03:38;1.83;;;1.00;;
56363;SDS011;42261;52.094;4.326;2022-09-02T16:06:23;1.92;;;1.50;;
56363;SDS011;42261;52.094;4.326;2022-09-02T16:09:09;1.38;;;1.10;;
56363;SDS011;42261;52.094;4.326;2022-09-02T16:11:54;1.88;;;1.30;;
56363;SDS011;42261;52.094;4.326;2022-09-02T16:14:40;2.22;;;1.10;;
56363;SDS011;42261;52.094;4.326;2022-09-02T16:17:25;1.48;;;1.30;;
56363;SDS011;42261;52.094;4.326;2022-09-02T16:20:09;2.72;;;1.20;;
56363;SDS011;42261;52.094;4.326;2022-09-02T16:22:55;4.05;;;1.20;;
56363;SDS011;42261;52.094;4.326;2022-09-02T16:25:40;4.50;;;1.95;;
56363;SDS011;42261;52.094;4.326;2022-09-02T16:28:24;2.60;;;1.30;;
56363;SDS011;42261;52.094;4.326;2022-09-02T16:31:10;2.10;;;1.42;;
56363;SDS011;42261;52.094;4.326;2022-09-02T16:33:57;1.92;;;1.30;;
56363;SDS011;42261;52.094;4.326;2022-09-02T16:36:46;3.60;;;1.50;;
56363;SDS011;42261;52.094;4.326;2022-09-02T16:39:33;2.85;;;1.20;;
56363;SDS011;42261;52.094;4.326;2022-09-02T16:42:19;1.48;;;1.20;;
56363;SDS011;42261;52.094;4.326;2022-09-02T16:45:04;2.63;;;1.20;;
56363;SDS011;42261;52.094;4.326;2022-09-02T16:47:49;3.92;;;1.13;;
56363;SDS011;42261;52.094;4.326;2022-09-02T16:50:33;3.85;;;1.20;;
56363;SDS011;42261;52.094;4.326;2022-09-02T16:53:18;2.47;;;1.30;;
56363;SDS011;42261;52.094;4.326;2022-09-02T16:56:03;1.40;;;1.20;;
56363;SDS011;42261;52.094;4.326;2022-09-02T16:58:47;5.35;;;1.25;;
56363;SDS011;42261;52.094;4.326;2022-09-02T17:01:33;2.67;;;1.20;;
56363;SDS011;42261;52.094;4.326;2022-09-02T17:04:17;3.78;;;1.20;;
56363;SDS011;42261;52.094;4.326;2022-09-02T17:07:02;2.75;;;1.02;;
56363;SDS011;42261;52.094;4.326;2022-09-02T17:09:45;8.85;;;1.20;;
56363;SDS011;42261;52.094;4.326;2022-09-02T17:12:30;3.88;;;1.00;;
56363;SDS011;42261;52.094;4.326;2022-09-02T17:15:17;2.33;;;1.10;;
56363;SDS011;42261;52.094;4.326;2022-09-02T17:18:01;6.43;;;1.52;;
56363;SDS011;42261;52.094;4.326;2022-09-02T17:20:45;2.40;;;1.20;;
56363;SDS011;42261;52.094;4.326;2022-09-02T17:23:30;2.28;;;1.27;;
56363;SDS011;42261;52.094;4.326;2022-09-02T17:26:14;2.97;;;1.38;;
56363;SDS011;42261;52.094;4.326;2022-09-02T17:28:59;3.72;;;1.35;;
56363;SDS011;42261;52.094;4.326;2022-09-02T17:31:45;1.95;;;1.23;;
56363;SDS011;42261;52.094;4.326;2022-09-02T17:34:30;2.80;;;1.35;;
56363;SDS011;42261;52.094;4.326;2022-09-02T17:37:16;2.30;;;1.10;;
56363;SDS011;42261;52.094;4.326;2022-09-02T17:40:01;1.70;;;1.35;;
56363;SDS011;42261;52.094;4.326;2022-09-02T17:42:50;3.55;;;1.95;;
56363;SDS011;42261;52.094;4.326;2022-09-02T17:45:37;3.70;;;1.40;;
56363;SDS011;42261;52.094;4.326;2022-09-02T17:48:21;1.48;;;1.25;;
56363;SDS011;42261;52.094;4.326;2022-09-02T17:51:05;1.65;;;1.25;;
56363;SDS011;42261;52.094;4.326;2022-09-02T17:53:50;3.13;;;1.20;;
56363;SDS011;42261;52.094;4.326;2022-09-02T17:56:44;2.70;;;1.10;;
56363;SDS011;42261;52.094;4.326;2022-09-02T17:59:51;4.07;;;1.20;;
56363;SDS011;42261;52.094;4.326;2022-09-02T18:02:55;3.75;;;1.80;;
56363;SDS011;42261;52.094;4.326;2022-09-02T18:09:00;3.65;;;1.40;;
56363;SDS011;42261;52.094;4.326;2022-09-02T18:11:46;1.60;;;1.30;;
56363;SDS011;42261;52.094;4.326;2022-09-02T18:14:34;3.50;;;1.70;;
56363;SDS011;42261;52.094;4.326;2022-09-02T18:17:26;3.70;;;1.30;;
56363;SDS011;42261;52.094;4.326;2022-09-02T18:20:23;4.28;;;1.50;;
56363;SDS011;42261;52.094;4.326;2022-09-02T18:26:10;3.83;;;1.20;;
56363;SDS011;42261;52.094;4.326;2022-09-02T18:32:23;2.13;;;1.40;;
56363;SDS011;42261;52.094;4.326;2022-09-02T18:42:16;3.42;;;1.40;;
56363;SDS011;42261;52.094;4.326;2022-09-02T18:45:30;2.08;;;1.30;;
56363;SDS011;42261;52.094;4.326;2022-09-02T18:48:36;1.75;;;1.63;;
56363;SDS011;42261;52.094;4.326;2022-09-02T18:57:04;4.15;;;1.30;;
56363;SDS011;42261;52.094;4.326;2022-09-02T19:02:45;1.73;;;1.40;;
56363;SDS011;42261;52.094;4.326;2022-09-02T19:05:33;4.03;;;1.40;;
56363;SDS011;42261;52.094;4.326;2022-09-02T19:08:19;6.57;;;1.65;;